sensor_id;sensor_type;location;lat;lon;timestamp;P1;durP1;ratioP1;P2;durP2;ratioP2
36829;SDS011;22767;47.328;9.640;2023-01-25T00:01:36;29.73;;;15.75;;
36829;SDS011;22767;47.328;9.640;2023-01-25T00:04:03;24.73;;;14.68;;
36829;SDS011;22767;47.328;9.640;2023-01-25T00:06:29;22.42;;;13.82;;
36829;SDS011;22767;47.328;9.640;2023-01-25T00:08:55;23.30;;;13.75;;
36829;SDS011;22767;47.328;9.640;2023-01-25T00:11:21;20.35;;;12.77;;
36829;SDS011;22767;47.328;9.640;2023-01-25T00:13:47;20.80;;;12.85;;
36829;SDS011;22767;47.328;9.640;2023-01-25T00:16:13;20.33;;;12.52;;
36829;SDS011;22767;47.328;9.640;2023-01-25T00:18:39;21.33;;;12.32;;
36829;SDS011;22767;47.328;9.640;2023-01-25T00:21:13;19.00;;;12.02;;
36829;SDS011;22767;47.328;9.640;2023-01-25T00:23:39;21.50;;;12.48;;
36829;SDS011;22767;47.328;9.640;2023-01-25T00:26:06;19.17;;;11.93;;
36829;SDS011;22767;47.328;9.640;2023-01-25T00:28:32;20.05;;;12.48;;
36829;SDS011;22767;47.328;9.640;2023-01-25T00:31:01;22.20;;;12.63;;
36829;SDS011;22767;47.328;9.640;2023-01-25T00:38:48;27.73;;;13.85;;
36829;SDS011;22767;47.328;9.640;2023-01-25T00:41:14;23.88;;;13.88;;
36829;SDS011;22767;47.328;9.640;2023-01-25T00:43:40;18.35;;;12.07;;
36829;SDS011;22767;47.328;9.640;2023-01-25T00:46:07;20.17;;;13.10;;
36829;SDS011;22767;47.328;9.640;2023-01-25T00:48:33;24.90;;;13.48;;
36829;SDS011;22767;47.328;9.640;2023-01-25T00:51:00;23.42;;;14.02;;
36829;SDS011;22767;47.328;9.640;2023-01-25T00:53:26;27.05;;;14.75;;
36829;SDS011;22767;47.328;9.640;2023-01-25T00:55:52;23.83;;;14.18;;
36829;SDS011;22767;47.328;9.640;2023-01-25T00:58:18;21.48;;;13.77;;
36829;SDS011;22767;47.328;9.640;2023-01-25T01:00:45;21.50;;;13.15;;
36829;SDS011;22767;47.328;9.640;2023-01-25T01:03:11;23.50;;;14.80;;
36829;SDS011;22767;47.328;9.640;2023-01-25T01:05:37;20.83;;;12.98;;
36829;SDS011;22767;47.328;9.640;2023-01-25T01:08:03;20.50;;;12.52;;
36829;SDS011;22767;47.328;9.640;2023-01-25T01:10:29;21.35;;;12.98;;
36829;SDS011;22767;47.328;9.640;2023-01-25T01:12:55;22.08;;;12.57;;
36829;SDS011;22767;47.328;9.640;2023-01-25T01:15:21;22.48;;;13.52;;
36829;SDS011;22767;47.328;9.640;2023-01-25T01:17:47;20.10;;;12.20;;
36829;SDS011;22767;47.328;9.640;2023-01-25T01:20:14;21.83;;;11.52;;
36829;SDS011;22767;47.328;9.640;2023-01-25T01:22:40;21.75;;;12.40;;
36829;SDS011;22767;47.328;9.640;2023-01-25T01:25:06;18.95;;;11.55;;
36829;SDS011;22767;47.328;9.640;2023-01-25T01:27:33;21.88;;;12.98;;
36829;SDS011;22767;47.328;9.640;2023-01-25T01:29:59;18.83;;;12.27;;
36829;SDS011;22767;47.328;9.640;2023-01-25T01:32:25;21.48;;;13.30;;
36829;SDS011;22767;47.328;9.640;2023-01-25T01:34:51;22.05;;;13.90;;
36829;SDS011;22767;47.328;9.640;2023-01-25T01:37:17;23.33;;;12.75;;
36829;SDS011;22767;47.328;9.640;2023-01-25T01:39:43;26.55;;;15.20;;
36829;SDS011;22767;47.328;9.640;2023-01-25T01:42:09;21.83;;;13.00;;
36829;SDS011;22767;47.328;9.640;2023-01-25T01:44:42;27.83;;;15.13;;
36829;SDS011;22767;47.328;9.640;2023-01-25T01:47:10;22.08;;;13.00;;
36829;SDS011;22767;47.328;9.640;2023-01-25T01:49:39;22.48;;;13.23;;
36829;SDS011;22767;47.328;9.640;2023-01-25T01:52:12;21.42;;;12.93;;
36829;SDS011;22767;47.328;9.640;2023-01-25T01:54:41;19.33;;;11.85;;
36829;SDS011;22767;47.328;9.640;2023-01-25T01:59:43;17.70;;;11.68;;
36829;SDS011;22767;47.328;9.640;2023-01-25T02:02:10;17.52;;;11.73;;
36829;SDS011;22767;47.328;9.640;2023-01-25T02:04:37;17.88;;;11.38;;
36829;SDS011;22767;47.328;9.640;2023-01-25T02:07:16;16.27;;;11.35;;
36829;SDS011;22767;47.328;9.640;2023-01-25T02:09:44;16.10;;;11.27;;
36829;SDS011;22767;47.328;9.640;2023-01-25T02:12:10;17.40;;;10.98;;
36829;SDS011;22767;47.328;9.640;2023-01-25T02:14:38;17.60;;;10.07;;
36829;SDS011;22767;47.328;9.640;2023-01-25T02:17:09;20.40;;;11.30;;
36829;SDS011;22767;47.328;9.640;2023-01-25T02:19:45;20.08;;;11.48;;
36829;SDS011;22767;47.328;9.640;2023-01-25T02:22:15;20.55;;;11.25;;
36829;SDS011;22767;47.328;9.640;2023-01-25T02:24:48;16.53;;;10.57;;
36829;SDS011;22767;47.328;9.640;2023-01-25T02:27:15;19.52;;;10.82;;
36829;SDS011;22767;47.328;9.640;2023-01-25T02:29:41;16.90;;;11.10;;
36829;SDS011;22767;47.328;9.640;2023-01-25T02:32:08;21.02;;;12.10;;
36829;SDS011;22767;47.328;9.640;2023-01-25T02:34:34;19.42;;;12.85;;
36829;SDS011;22767;47.328;9.640;2023-01-25T02:37:00;19.13;;;11.75;;
36829;SDS011;22767;47.328;9.640;2023-01-25T02:39:27;20.83;;;12.50;;
36829;SDS011;22767;47.328;9.640;2023-01-25T02:41:54;22.50;;;13.65;;
36829;SDS011;22767;47.328;9.640;2023-01-25T02:44:22;20.75;;;12.48;;
36829;SDS011;22767;47.328;9.640;2023-01-25T02:46:49;16.90;;;11.82;;
36829;SDS011;22767;47.328;9.640;2023-01-25T02:49:15;20.98;;;11.48;;
36829;SDS011;22767;47.328;9.640;2023-01-25T02:51:43;19.50;;;11.32;;
36829;SDS011;22767;47.328;9.640;2023-01-25T02:54:10;17.95;;;11.52;;
36829;SDS011;22767;47.328;9.640;2023-01-25T02:56:36;17.92;;;11.13;;
36829;SDS011;22767;47.328;9.640;2023-01-25T02:59:04;17.15;;;11.30;;
36829;SDS011;22767;47.328;9.640;2023-01-25T03:01:34;20.27;;;11.73;;
36829;SDS011;22767;47.328;9.640;2023-01-25T03:04:01;15.98;;;10.90;;
36829;SDS011;22767;47.328;9.640;2023-01-25T03:06:27;18.83;;;11.68;;
36829;SDS011;22767;47.328;9.640;2023-01-25T03:08:54;16.05;;;10.93;;
36829;SDS011;22767;47.328;9.640;2023-01-25T03:11:20;16.45;;;10.50;;
36829;SDS011;22767;47.328;9.640;2023-01-25T03:13:46;16.52;;;10.60;;
36829;SDS011;22767;47.328;9.640;2023-01-25T03:16:12;20.48;;;11.85;;
36829;SDS011;22767;47.328;9.640;2023-01-25T03:18:39;21.95;;;12.52;;
36829;SDS011;22767;47.328;9.640;2023-01-25T03:21:10;18.30;;;11.65;;
36829;SDS011;22767;47.328;9.640;2023-01-25T03:23:37;17.05;;;10.52;;
36829;SDS011;22767;47.328;9.640;2023-01-25T03:26:04;18.73;;;10.98;;
36829;SDS011;22767;47.328;9.640;2023-01-25T03:28:30;18.40;;;11.13;;
36829;SDS011;22767;47.328;9.640;2023-01-25T03:30:56;18.85;;;11.43;;
36829;SDS011;22767;47.328;9.640;2023-01-25T03:33:22;19.25;;;11.80;;
36829;SDS011;22767;47.328;9.640;2023-01-25T03:35:52;19.40;;;11.38;;
36829;SDS011;22767;47.328;9.640;2023-01-25T03:38:18;18.83;;;11.55;;
36829;SDS011;22767;47.328;9.640;2023-01-25T03:40:47;18.00;;;11.30;;
36829;SDS011;22767;47.328;9.640;2023-01-25T03:43:14;18.40;;;11.18;;
36829;SDS011;22767;47.328;9.640;2023-01-25T03:45:40;21.00;;;11.88;;
36829;SDS011;22767;47.328;9.640;2023-01-25T03:48:06;19.40;;;12.13;;
36829;SDS011;22767;47.328;9.640;2023-01-25T03:50:32;18.67;;;12.10;;
36829;SDS011;22767;47.328;9.640;2023-01-25T03:52:59;19.52;;;11.18;;
36829;SDS011;22767;47.328;9.640;2023-01-25T03:55:32;17.83;;;11.00;;
36829;SDS011;22767;47.328;9.640;2023-01-25T03:57:58;16.58;;;10.68;;
36829;SDS011;22767;47.328;9.640;2023-01-25T04:00:25;21.67;;;11.85;;
36829;SDS011;22767;47.328;9.640;2023-01-25T04:02:51;21.13;;;13.00;;
36829;SDS011;22767;47.328;9.640;2023-01-25T04:05:17;19.83;;;11.75;;
36829;SDS011;22767;47.328;9.640;2023-01-25T04:07:43;18.90;;;12.00;;
36829;SDS011;22767;47.328;9.640;2023-01-25T04:10:10;23.45;;;13.40;;
36829;SDS011;22767;47.328;9.640;2023-01-25T04:12:36;24.33;;;13.98;;
36829;SDS011;22767;47.328;9.640;2023-01-25T04:15:02;24.02;;;14.60;;
36829;SDS011;22767;47.328;9.640;2023-01-25T04:17:28;22.63;;;13.57;;
36829;SDS011;22767;47.328;9.640;2023-01-25T04:19:55;20.52;;;13.48;;
36829;SDS011;22767;47.328;9.640;2023-01-25T04:22:21;20.27;;;14.07;;
36829;SDS011;22767;47.328;9.640;2023-01-25T04:24:47;19.88;;;12.82;;
36829;SDS011;22767;47.328;9.640;2023-01-25T04:27:13;18.65;;;11.75;;
36829;SDS011;22767;47.328;9.640;2023-01-25T04:29:39;26.30;;;14.48;;
36829;SDS011;22767;47.328;9.640;2023-01-25T04:32:05;20.05;;;12.45;;
36829;SDS011;22767;47.328;9.640;2023-01-25T04:34:31;24.25;;;12.82;;
36829;SDS011;22767;47.328;9.640;2023-01-25T04:36:57;22.05;;;13.95;;
36829;SDS011;22767;47.328;9.640;2023-01-25T04:39:23;20.83;;;13.30;;
36829;SDS011;22767;47.328;9.640;2023-01-25T04:41:49;19.48;;;12.32;;
36829;SDS011;22767;47.328;9.640;2023-01-25T04:44:16;22.27;;;13.38;;
36829;SDS011;22767;47.328;9.640;2023-01-25T04:46:42;21.95;;;12.35;;
36829;SDS011;22767;47.328;9.640;2023-01-25T04:49:08;21.85;;;13.27;;
36829;SDS011;22767;47.328;9.640;2023-01-25T04:51:34;24.63;;;13.38;;
36829;SDS011;22767;47.328;9.640;2023-01-25T04:54:01;21.95;;;13.60;;
36829;SDS011;22767;47.328;9.640;2023-01-25T04:56:27;20.70;;;14.07;;
36829;SDS011;22767;47.328;9.640;2023-01-25T04:58:53;24.20;;;13.07;;
36829;SDS011;22767;47.328;9.640;2023-01-25T05:01:19;22.88;;;14.10;;
36829;SDS011;22767;47.328;9.640;2023-01-25T05:03:45;20.60;;;13.30;;
36829;SDS011;22767;47.328;9.640;2023-01-25T05:06:11;22.13;;;13.63;;
36829;SDS011;22767;47.328;9.640;2023-01-25T05:08:37;22.90;;;13.75;;
36829;SDS011;22767;47.328;9.640;2023-01-25T05:11:04;24.30;;;14.10;;
36829;SDS011;22767;47.328;9.640;2023-01-25T05:13:30;24.73;;;13.32;;
36829;SDS011;22767;47.328;9.640;2023-01-25T05:15:56;25.98;;;13.75;;
36829;SDS011;22767;47.328;9.640;2023-01-25T05:18:22;24.80;;;14.18;;
36829;SDS011;22767;47.328;9.640;2023-01-25T05:20:53;24.05;;;14.95;;
36829;SDS011;22767;47.328;9.640;2023-01-25T05:23:20;23.08;;;13.73;;
36829;SDS011;22767;47.328;9.640;2023-01-25T05:25:46;23.42;;;14.35;;
36829;SDS011;22767;47.328;9.640;2023-01-25T05:28:31;26.52;;;14.57;;
36829;SDS011;22767;47.328;9.640;2023-01-25T05:30:57;24.88;;;14.52;;
36829;SDS011;22767;47.328;9.640;2023-01-25T05:33:23;25.38;;;14.80;;
36829;SDS011;22767;47.328;9.640;2023-01-25T05:35:49;26.98;;;16.95;;
36829;SDS011;22767;47.328;9.640;2023-01-25T05:38:15;28.13;;;15.68;;
36829;SDS011;22767;47.328;9.640;2023-01-25T05:40:41;18.77;;;13.35;;
36829;SDS011;22767;47.328;9.640;2023-01-25T05:43:08;21.42;;;13.30;;
36829;SDS011;22767;47.328;9.640;2023-01-25T05:45:34;26.05;;;14.77;;
36829;SDS011;22767;47.328;9.640;2023-01-25T05:48:00;22.25;;;13.55;;
36829;SDS011;22767;47.328;9.640;2023-01-25T05:50:26;20.58;;;12.75;;
36829;SDS011;22767;47.328;9.640;2023-01-25T05:52:52;20.15;;;12.40;;
36829;SDS011;22767;47.328;9.640;2023-01-25T05:55:18;21.63;;;13.38;;
36829;SDS011;22767;47.328;9.640;2023-01-25T05:57:45;20.65;;;13.48;;
36829;SDS011;22767;47.328;9.640;2023-01-25T06:00:11;21.90;;;14.25;;
36829;SDS011;22767;47.328;9.640;2023-01-25T06:02:37;23.52;;;15.73;;
36829;SDS011;22767;47.328;9.640;2023-01-25T06:05:04;23.50;;;13.43;;
36829;SDS011;22767;47.328;9.640;2023-01-25T06:07:33;20.20;;;13.65;;
36829;SDS011;22767;47.328;9.640;2023-01-25T06:10:03;21.50;;;13.40;;
36829;SDS011;22767;47.328;9.640;2023-01-25T06:12:30;21.05;;;13.60;;
36829;SDS011;22767;47.328;9.640;2023-01-25T06:14:57;20.02;;;12.25;;
36829;SDS011;22767;47.328;9.640;2023-01-25T06:17:23;22.42;;;12.10;;
36829;SDS011;22767;47.328;9.640;2023-01-25T06:19:49;19.67;;;12.60;;
36829;SDS011;22767;47.328;9.640;2023-01-25T06:22:15;18.80;;;11.82;;
36829;SDS011;22767;47.328;9.640;2023-01-25T06:24:41;22.55;;;11.85;;
36829;SDS011;22767;47.328;9.640;2023-01-25T06:27:07;20.50;;;12.43;;
36829;SDS011;22767;47.328;9.640;2023-01-25T06:29:35;22.88;;;12.80;;
36829;SDS011;22767;47.328;9.640;2023-01-25T06:32:01;23.70;;;12.15;;
36829;SDS011;22767;47.328;9.640;2023-01-25T06:34:27;26.50;;;15.75;;
36829;SDS011;22767;47.328;9.640;2023-01-25T06:36:53;21.25;;;13.18;;
36829;SDS011;22767;47.328;9.640;2023-01-25T06:39:19;17.17;;;11.65;;
36829;SDS011;22767;47.328;9.640;2023-01-25T06:41:45;20.00;;;13.15;;
36829;SDS011;22767;47.328;9.640;2023-01-25T06:44:11;17.25;;;11.95;;
36829;SDS011;22767;47.328;9.640;2023-01-25T06:46:38;17.52;;;10.77;;
36829;SDS011;22767;47.328;9.640;2023-01-25T06:49:04;24.15;;;13.00;;
36829;SDS011;22767;47.328;9.640;2023-01-25T06:51:30;20.15;;;12.52;;
36829;SDS011;22767;47.328;9.640;2023-01-25T06:53:56;18.80;;;12.40;;
36829;SDS011;22767;47.328;9.640;2023-01-25T06:56:22;21.85;;;13.30;;
36829;SDS011;22767;47.328;9.640;2023-01-25T06:58:48;21.20;;;13.15;;
36829;SDS011;22767;47.328;9.640;2023-01-25T07:01:16;20.40;;;13.60;;
36829;SDS011;22767;47.328;9.640;2023-01-25T07:03:52;23.25;;;14.25;;
36829;SDS011;22767;47.328;9.640;2023-01-25T07:06:19;27.45;;;16.30;;
36829;SDS011;22767;47.328;9.640;2023-01-25T07:08:45;34.92;;;19.95;;
36829;SDS011;22767;47.328;9.640;2023-01-25T07:11:12;32.13;;;19.25;;
36829;SDS011;22767;47.328;9.640;2023-01-25T07:13:42;32.45;;;19.45;;
36829;SDS011;22767;47.328;9.640;2023-01-25T07:16:13;27.25;;;17.02;;
36829;SDS011;22767;47.328;9.640;2023-01-25T07:18:40;27.08;;;15.57;;
36829;SDS011;22767;47.328;9.640;2023-01-25T07:21:14;26.35;;;16.65;;
36829;SDS011;22767;47.328;9.640;2023-01-25T07:23:40;29.40;;;15.88;;
36829;SDS011;22767;47.328;9.640;2023-01-25T07:26:13;29.13;;;16.50;;
36829;SDS011;22767;47.328;9.640;2023-01-25T07:28:40;26.08;;;15.95;;
36829;SDS011;22767;47.328;9.640;2023-01-25T07:31:06;24.88;;;15.98;;
36829;SDS011;22767;47.328;9.640;2023-01-25T07:33:33;26.10;;;15.52;;
36829;SDS011;22767;47.328;9.640;2023-01-25T07:36:03;25.63;;;15.90;;
36829;SDS011;22767;47.328;9.640;2023-01-25T07:38:29;23.92;;;14.77;;
36829;SDS011;22767;47.328;9.640;2023-01-25T07:40:55;25.40;;;14.90;;
36829;SDS011;22767;47.328;9.640;2023-01-25T07:43:22;24.85;;;13.80;;
36829;SDS011;22767;47.328;9.640;2023-01-25T07:45:48;21.02;;;13.50;;
36829;SDS011;22767;47.328;9.640;2023-01-25T07:48:15;22.92;;;14.23;;
36829;SDS011;22767;47.328;9.640;2023-01-25T07:50:42;22.90;;;13.95;;
36829;SDS011;22767;47.328;9.640;2023-01-25T07:53:11;26.67;;;14.02;;
36829;SDS011;22767;47.328;9.640;2023-01-25T07:55:37;21.13;;;12.88;;
36829;SDS011;22767;47.328;9.640;2023-01-25T07:58:04;22.70;;;13.65;;
36829;SDS011;22767;47.328;9.640;2023-01-25T08:00:30;19.15;;;13.00;;
36829;SDS011;22767;47.328;9.640;2023-01-25T08:02:56;23.73;;;14.77;;
36829;SDS011;22767;47.328;9.640;2023-01-25T08:05:22;23.33;;;14.75;;
36829;SDS011;22767;47.328;9.640;2023-01-25T08:07:49;18.50;;;13.60;;
36829;SDS011;22767;47.328;9.640;2023-01-25T08:10:15;24.15;;;15.10;;
36829;SDS011;22767;47.328;9.640;2023-01-25T08:12:45;23.77;;;15.32;;
36829;SDS011;22767;47.328;9.640;2023-01-25T08:15:11;26.98;;;15.85;;
36829;SDS011;22767;47.328;9.640;2023-01-25T08:17:38;26.05;;;16.05;;
36829;SDS011;22767;47.328;9.640;2023-01-25T08:20:04;25.75;;;15.00;;
36829;SDS011;22767;47.328;9.640;2023-01-25T08:22:32;22.52;;;13.65;;
36829;SDS011;22767;47.328;9.640;2023-01-25T08:24:58;23.10;;;14.20;;
36829;SDS011;22767;47.328;9.640;2023-01-25T08:27:26;23.30;;;14.63;;
36829;SDS011;22767;47.328;9.640;2023-01-25T08:29:52;24.85;;;15.55;;
36829;SDS011;22767;47.328;9.640;2023-01-25T08:32:19;26.08;;;16.40;;
36829;SDS011;22767;47.328;9.640;2023-01-25T08:34:45;28.52;;;16.83;;
36829;SDS011;22767;47.328;9.640;2023-01-25T08:37:12;26.23;;;17.35;;
36829;SDS011;22767;47.328;9.640;2023-01-25T08:39:38;29.88;;;17.50;;
36829;SDS011;22767;47.328;9.640;2023-01-25T08:42:04;25.30;;;14.80;;
36829;SDS011;22767;47.328;9.640;2023-01-25T08:44:31;21.13;;;13.15;;
36829;SDS011;22767;47.328;9.640;2023-01-25T08:46:57;20.55;;;13.30;;
36829;SDS011;22767;47.328;9.640;2023-01-25T08:49:23;21.10;;;13.75;;
36829;SDS011;22767;47.328;9.640;2023-01-25T08:51:51;22.08;;;13.00;;
36829;SDS011;22767;47.328;9.640;2023-01-25T08:54:17;21.23;;;13.55;;
36829;SDS011;22767;47.328;9.640;2023-01-25T08:56:43;19.48;;;12.25;;
36829;SDS011;22767;47.328;9.640;2023-01-25T08:59:10;18.80;;;12.07;;
36829;SDS011;22767;47.328;9.640;2023-01-25T09:01:36;17.60;;;11.65;;
36829;SDS011;22767;47.328;9.640;2023-01-25T09:04:02;17.40;;;12.15;;
36829;SDS011;22767;47.328;9.640;2023-01-25T09:06:29;17.88;;;11.80;;
36829;SDS011;22767;47.328;9.640;2023-01-25T09:08:55;18.40;;;11.90;;
36829;SDS011;22767;47.328;9.640;2023-01-25T09:11:23;16.33;;;10.98;;
36829;SDS011;22767;47.328;9.640;2023-01-25T09:13:49;16.08;;;10.80;;
36829;SDS011;22767;47.328;9.640;2023-01-25T09:16:17;15.38;;;11.40;;
36829;SDS011;22767;47.328;9.640;2023-01-25T09:18:44;17.77;;;12.05;;
36829;SDS011;22767;47.328;9.640;2023-01-25T09:21:13;18.00;;;12.20;;
36829;SDS011;22767;47.328;9.640;2023-01-25T09:23:39;15.80;;;11.52;;
36829;SDS011;22767;47.328;9.640;2023-01-25T09:26:09;25.02;;;14.45;;
36829;SDS011;22767;47.328;9.640;2023-01-25T09:28:35;28.67;;;14.98;;
36829;SDS011;22767;47.328;9.640;2023-01-25T09:31:02;20.30;;;13.32;;
36829;SDS011;22767;47.328;9.640;2023-01-25T09:33:30;21.55;;;13.75;;
36829;SDS011;22767;47.328;9.640;2023-01-25T09:35:56;26.85;;;17.35;;
36829;SDS011;22767;47.328;9.640;2023-01-25T09:38:22;22.83;;;14.30;;
36829;SDS011;22767;47.328;9.640;2023-01-25T09:43:29;34.00;;;19.20;;
36829;SDS011;22767;47.328;9.640;2023-01-25T09:45:58;30.27;;;17.65;;
36829;SDS011;22767;47.328;9.640;2023-01-25T09:48:34;25.85;;;15.95;;
36829;SDS011;22767;47.328;9.640;2023-01-25T09:55:58;31.85;;;19.63;;
36829;SDS011;22767;47.328;9.640;2023-01-25T09:58:32;28.77;;;17.67;;
36829;SDS011;22767;47.328;9.640;2023-01-25T10:03:38;23.60;;;14.95;;
36829;SDS011;22767;47.328;9.640;2023-01-25T10:06:07;24.08;;;15.82;;
36829;SDS011;22767;47.328;9.640;2023-01-25T10:08:38;23.70;;;15.10;;
36829;SDS011;22767;47.328;9.640;2023-01-25T10:11:15;24.33;;;15.48;;
36829;SDS011;22767;47.328;9.640;2023-01-25T10:13:44;24.42;;;15.32;;
36829;SDS011;22767;47.328;9.640;2023-01-25T10:16:12;25.60;;;15.43;;
36829;SDS011;22767;47.328;9.640;2023-01-25T10:18:50;22.65;;;15.02;;
36829;SDS011;22767;47.328;9.640;2023-01-25T10:21:33;23.50;;;15.73;;
36829;SDS011;22767;47.328;9.640;2023-01-25T10:26:33;21.13;;;13.63;;
36829;SDS011;22767;47.328;9.640;2023-01-25T10:29:09;20.50;;;13.80;;
36829;SDS011;22767;47.328;9.640;2023-01-25T10:34:11;19.85;;;13.50;;
36829;SDS011;22767;47.328;9.640;2023-01-25T10:36:37;20.27;;;13.57;;
36829;SDS011;22767;47.328;9.640;2023-01-25T10:39:04;18.73;;;12.95;;
36829;SDS011;22767;47.328;9.640;2023-01-25T10:41:38;20.27;;;13.20;;
36829;SDS011;22767;47.328;9.640;2023-01-25T10:44:07;18.23;;;12.77;;
36829;SDS011;22767;47.328;9.640;2023-01-25T10:46:49;20.55;;;13.98;;
36829;SDS011;22767;47.328;9.640;2023-01-25T10:49:28;19.73;;;13.35;;
36829;SDS011;22767;47.328;9.640;2023-01-25T10:52:00;19.35;;;12.70;;
36829;SDS011;22767;47.328;9.640;2023-01-25T10:54:36;20.17;;;12.40;;
36829;SDS011;22767;47.328;9.640;2023-01-25T10:57:03;20.52;;;12.80;;
36829;SDS011;22767;47.328;9.640;2023-01-25T10:59:30;21.30;;;13.13;;
36829;SDS011;22767;47.328;9.640;2023-01-25T11:02:01;22.70;;;14.05;;
36829;SDS011;22767;47.328;9.640;2023-01-25T11:04:43;18.58;;;12.73;;
36829;SDS011;22767;47.328;9.640;2023-01-25T11:07:25;24.20;;;13.38;;
36829;SDS011;22767;47.328;9.640;2023-01-25T11:09:51;20.63;;;13.25;;
36829;SDS011;22767;47.328;9.640;2023-01-25T11:12:18;20.05;;;13.68;;
36829;SDS011;22767;47.328;9.640;2023-01-25T11:14:48;20.98;;;13.38;;
36829;SDS011;22767;47.328;9.640;2023-01-25T11:17:22;20.77;;;12.65;;
36829;SDS011;22767;47.328;9.640;2023-01-25T11:19:49;17.77;;;12.63;;
36829;SDS011;22767;47.328;9.640;2023-01-25T11:22:29;20.30;;;13.48;;
36829;SDS011;22767;47.328;9.640;2023-01-25T11:24:55;21.13;;;13.07;;
36829;SDS011;22767;47.328;9.640;2023-01-25T11:27:25;18.20;;;12.68;;
36829;SDS011;22767;47.328;9.640;2023-01-25T11:32:26;17.98;;;13.20;;
36829;SDS011;22767;47.328;9.640;2023-01-25T11:34:53;19.23;;;12.82;;
36829;SDS011;22767;47.328;9.640;2023-01-25T11:42:30;17.08;;;11.07;;
36829;SDS011;22767;47.328;9.640;2023-01-25T11:45:09;16.58;;;10.73;;
36829;SDS011;22767;47.328;9.640;2023-01-25T11:47:52;15.80;;;10.10;;
36829;SDS011;22767;47.328;9.640;2023-01-25T11:50:26;13.93;;;8.90;;
36829;SDS011;22767;47.328;9.640;2023-01-25T12:03:59;16.92;;;9.90;;
36829;SDS011;22767;47.328;9.640;2023-01-25T12:06:21;16.02;;;8.90;;
36829;SDS011;22767;47.328;9.640;2023-01-25T12:08:57;16.13;;;9.75;;
36829;SDS011;22767;47.328;9.640;2023-01-25T12:11:36;15.70;;;9.20;;
36829;SDS011;22767;47.328;9.640;2023-01-25T12:14:19;16.40;;;9.50;;
36829;SDS011;22767;47.328;9.640;2023-01-25T12:30:10;16.98;;;8.20;;
36829;SDS011;22767;47.328;9.640;2023-01-25T12:33:12;14.20;;;9.15;;
36829;SDS011;22767;47.328;9.640;2023-01-25T12:35:38;13.75;;;9.20;;
36829;SDS011;22767;47.328;9.640;2023-01-25T12:38:14;13.40;;;8.25;;
36829;SDS011;22767;47.328;9.640;2023-01-25T12:40:51;14.77;;;8.60;;
36829;SDS011;22767;47.328;9.640;2023-01-25T12:43:27;14.85;;;8.55;;
36829;SDS011;22767;47.328;9.640;2023-01-25T12:45:55;13.38;;;8.80;;
36829;SDS011;22767;47.328;9.640;2023-01-25T12:48:32;15.05;;;8.90;;
36829;SDS011;22767;47.328;9.640;2023-01-25T12:51:01;13.10;;;8.30;;
36829;SDS011;22767;47.328;9.640;2023-01-25T12:55:59;10.07;;;7.07;;
36829;SDS011;22767;47.328;9.640;2023-01-25T13:11:15;12.45;;;7.53;;
36829;SDS011;22767;47.328;9.640;2023-01-25T13:13:43;18.02;;;8.05;;
36829;SDS011;22767;47.328;9.640;2023-01-25T13:16:23;12.73;;;7.80;;
36829;SDS011;22767;47.328;9.640;2023-01-25T13:18:49;13.48;;;7.55;;
36829;SDS011;22767;47.328;9.640;2023-01-25T13:26:46;13.52;;;8.38;;
36829;SDS011;22767;47.328;9.640;2023-01-25T13:31:57;13.57;;;7.80;;
36829;SDS011;22767;47.328;9.640;2023-01-25T13:37:16;13.30;;;7.85;;
36829;SDS011;22767;47.328;9.640;2023-01-25T13:39:43;12.90;;;8.18;;
36829;SDS011;22767;47.328;9.640;2023-01-25T13:44:38;13.73;;;8.30;;
36829;SDS011;22767;47.328;9.640;2023-01-25T13:47:09;13.63;;;8.18;;
36829;SDS011;22767;47.328;9.640;2023-01-25T13:49:38;13.43;;;8.23;;
36829;SDS011;22767;47.328;9.640;2023-01-25T13:52:05;12.68;;;7.68;;
36829;SDS011;22767;47.328;9.640;2023-01-25T13:54:32;12.82;;;8.50;;
36829;SDS011;22767;47.328;9.640;2023-01-25T13:57:10;13.70;;;8.23;;
36829;SDS011;22767;47.328;9.640;2023-01-25T13:59:37;13.60;;;8.10;;
36829;SDS011;22767;47.328;9.640;2023-01-25T14:02:05;12.40;;;8.23;;
36829;SDS011;22767;47.328;9.640;2023-01-25T14:04:36;13.80;;;8.35;;
36829;SDS011;22767;47.328;9.640;2023-01-25T14:07:02;11.32;;;7.63;;
36829;SDS011;22767;47.328;9.640;2023-01-25T14:09:34;14.43;;;8.93;;
36829;SDS011;22767;47.328;9.640;2023-01-25T14:12:00;15.00;;;8.75;;
36829;SDS011;22767;47.328;9.640;2023-01-25T14:17:04;11.70;;;7.90;;
36829;SDS011;22767;47.328;9.640;2023-01-25T14:19:34;14.18;;;9.07;;
36829;SDS011;22767;47.328;9.640;2023-01-25T14:24:36;11.23;;;7.65;;
36829;SDS011;22767;47.328;9.640;2023-01-25T14:27:03;11.85;;;8.27;;
36829;SDS011;22767;47.328;9.640;2023-01-25T14:29:29;14.38;;;9.20;;
36829;SDS011;22767;47.328;9.640;2023-01-25T14:31:57;14.45;;;8.40;;
36829;SDS011;22767;47.328;9.640;2023-01-25T14:34:24;14.43;;;8.30;;
36829;SDS011;22767;47.328;9.640;2023-01-25T14:37:03;11.82;;;7.50;;
36829;SDS011;22767;47.328;9.640;2023-01-25T14:39:31;12.95;;;7.72;;
36829;SDS011;22767;47.328;9.640;2023-01-25T14:41:57;12.98;;;8.48;;
36829;SDS011;22767;47.328;9.640;2023-01-25T14:44:24;12.88;;;8.05;;
36829;SDS011;22767;47.328;9.640;2023-01-25T14:46:55;12.02;;;8.40;;
36829;SDS011;22767;47.328;9.640;2023-01-25T14:49:39;12.15;;;8.15;;
36829;SDS011;22767;47.328;9.640;2023-01-25T14:52:08;12.77;;;8.20;;
36829;SDS011;22767;47.328;9.640;2023-01-25T14:54:52;15.07;;;8.68;;
36829;SDS011;22767;47.328;9.640;2023-01-25T14:57:26;13.48;;;8.98;;
36829;SDS011;22767;47.328;9.640;2023-01-25T14:59:54;14.30;;;8.07;;
36829;SDS011;22767;47.328;9.640;2023-01-25T15:02:24;12.55;;;8.90;;
36829;SDS011;22767;47.328;9.640;2023-01-25T15:07:34;14.02;;;8.57;;
36829;SDS011;22767;47.328;9.640;2023-01-25T15:12:53;14.00;;;8.85;;
36829;SDS011;22767;47.328;9.640;2023-01-25T15:15:20;13.55;;;8.88;;
36829;SDS011;22767;47.328;9.640;2023-01-25T15:17:48;13.10;;;8.70;;
36829;SDS011;22767;47.328;9.640;2023-01-25T15:20:35;16.40;;;9.25;;
36829;SDS011;22767;47.328;9.640;2023-01-25T15:25:31;15.82;;;10.23;;
36829;SDS011;22767;47.328;9.640;2023-01-25T15:27:57;18.27;;;10.48;;
36829;SDS011;22767;47.328;9.640;2023-01-25T15:30:23;16.13;;;10.20;;
36829;SDS011;22767;47.328;9.640;2023-01-25T15:32:49;16.63;;;10.55;;
36829;SDS011;22767;47.328;9.640;2023-01-25T15:35:17;16.67;;;10.82;;
36829;SDS011;22767;47.328;9.640;2023-01-25T15:37:43;17.40;;;9.55;;
36829;SDS011;22767;47.328;9.640;2023-01-25T15:40:10;13.95;;;8.88;;
36829;SDS011;22767;47.328;9.640;2023-01-25T15:42:37;15.43;;;10.10;;
36829;SDS011;22767;47.328;9.640;2023-01-25T15:45:04;15.43;;;10.18;;
36829;SDS011;22767;47.328;9.640;2023-01-25T15:47:30;13.27;;;9.05;;
36829;SDS011;22767;47.328;9.640;2023-01-25T15:49:57;14.70;;;9.15;;
36829;SDS011;22767;47.328;9.640;2023-01-25T15:52:24;13.40;;;9.40;;
36829;SDS011;22767;47.328;9.640;2023-01-25T15:54:50;14.50;;;9.02;;
36829;SDS011;22767;47.328;9.640;2023-01-25T15:57:24;12.32;;;8.05;;
36829;SDS011;22767;47.328;9.640;2023-01-25T15:59:51;12.85;;;8.55;;
36829;SDS011;22767;47.328;9.640;2023-01-25T16:02:19;15.07;;;8.82;;
36829;SDS011;22767;47.328;9.640;2023-01-25T16:04:45;12.68;;;8.48;;
36829;SDS011;22767;47.328;9.640;2023-01-25T16:07:26;13.30;;;8.82;;